Cactus Peak, Santa Catalina Island Weather observations

Data are for 10 minute period ending at time listed.
 Day   Time   Solar   Ave.   Ave.  Ave.  Vector    Max.   Stn.    Total
  of    of     Rad.   Air    Rel.  Wind   Wind     Wind   Baro.  Precip.
Year   Day            Temp.  Hum.  Speed  Dir.     Gust   Pres.         
2014   (PST)   W/m2    F      %     mph   deg.      mph    mb.     in.  
------------------------------------------------------------------------
 352   12:50  145.0    56   87.8     6    173.4    10.8    999.0   0.00  
 352   13:00  143.0    55   88.4     6    170.3     9.0    999.0   0.00  
 352   13:10  164.0    55   88.6     6    174.7     8.4    999.0   0.00  
 352   13:20  206.0    55   88.7     6    173.0     7.8    999.0   0.00  
 352   13:30  183.0    55   88.8     5    167.0     7.2    999.0   0.00  
 352   13:40  152.0    55   88.8     4    160.8     6.6    999.0   0.00  
 352   13:50  144.0    55   88.8     4    142.7     6.6    999.0   0.00  
 352   14:00  119.0    55   88.8     4    153.3     6.0    999.0   0.00  
 352   14:10  102.0    55   88.8     5    157.0     7.2    999.0   0.01  
 352   14:20   83.0    55   88.9     4    148.5     7.8    999.0   0.00  
 352   14:30  107.0    55   89.0     4    125.9     6.6    999.0   0.00  
 352   14:40  109.0    56   89.0     5    121.7     7.2    999.0   0.00  
 352   14:50   92.0    55   89.0     5    113.9     7.2    999.0   0.00  
 352   15:00   72.0    55   89.0     4    113.4     7.2    999.0   0.00  
 352   15:10   78.0    56   88.9     3    110.7     5.4    999.0   0.01  
 352   15:20   56.0    56   88.7     2     58.7     3.6    999.0   0.00  
 352   15:30   51.0    56   88.8     5    358.3     7.8    999.0   0.01  
 352   15:40   74.0    55   88.9     7      5.2     9.0    999.0   0.02  
 352   15:50   49.0    55   89.1     6     51.4     7.8    999.0   0.00  
 352   16:00   51.0    55   89.0     4    102.5     6.6    999.0   0.00  
 352   16:10   44.0    56   88.7     6    124.8     9.0    999.0   0.00  
 352   16:20   47.0    55   88.7     5    129.6     8.4    999.0   0.00  
 352   16:30   26.0    55   87.5     5    136.9     7.8    999.0   0.00  
 352   16:40   21.0    56   85.4     4    155.6     6.0    999.0   0.00  
 352   16:50   11.0    56   85.9     5    124.1     7.2    999.0   0.00  
 352   17:00    3.0    55   87.1     3    101.0     7.8    999.0   0.00  
 352   17:10    1.0    55   86.9     2     71.8     5.4    999.0   0.00  
 352   17:20    0.0    55   85.9     1    286.7     1.2    999.0   0.00  
 352   17:30    0.0    56   84.6     1    272.1     0.6    999.0   0.00  
 352   17:40    0.0    56   83.7     1    127.5     4.2    999.0   0.00  
 352   17:50    0.0    55   84.7     4    107.9     4.8    999.0   0.00  
 352   18:00    0.0    55   85.5     4    110.0     5.4    999.0   0.00  
 352   18:10    0.0    55   85.8     5    120.5     7.8    999.0   0.00  
 352   18:20    0.0    55   87.3     7    124.3     8.4    999.0   0.00  
 352   18:30    0.0    55   87.7     7    128.3     9.0    999.0   0.00  
 352   18:40    0.0    55   87.4     7    125.3     9.6    999.0   0.00  
 352   18:50    0.0    55   87.3     7    131.2     9.6    999.0   0.00  
 352   19:00    0.0    55   87.5     7    121.2    10.2    999.0   0.00  
 352   19:10    0.0    55   87.8     7    115.0    10.2    999.0   0.00  
 352   19:20    0.0    54   88.0     7    117.4     8.4    999.0   0.00  
 352   19:30    0.0    54   88.3     7    116.0     9.0    999.0   0.00  
 352   19:40    0.0    55   88.5     6    119.4     9.0    999.0   0.00  
 352   19:50    0.0    54   88.6     6    120.5     8.4    999.0   0.00  
 352   20:00    0.0    55   88.7     7    124.1     8.4    999.0   0.00  
 352   20:10    0.0    55   88.8     7    126.1     7.8    999.0   0.00  
 352   20:20    0.0    55   89.0     6    124.7     7.8    999.0   0.00  
 352   20:30    0.0    55   89.1     6    120.4     8.4    999.0   0.00  
 352   20:40    0.0    55   89.1     6    118.8     8.4    999.0   0.00  
 352   20:50    0.0    55   89.2     8    129.2     9.0    999.0   0.00  
 352   21:00    0.0    55   89.3     7    131.0     8.4    999.0   0.00  
 352   21:10    0.0    55   89.3     6    130.6     7.2    999.0   0.00  
 352   21:20    0.0    55   89.4     6    133.9     9.0    999.0   0.00  
 352   21:30    0.0    55   89.4     5    126.8     6.6    999.0   0.00  
 352   21:40    0.0    55   89.4     4    146.1     5.4    999.0   0.01  
 352   21:50    0.0    55   89.3     2    145.2     4.2    999.0   0.00  
 352   22:00    0.0    55   89.1     2     14.0     3.0    999.0   0.00  
 352   22:10    0.0    55   88.8     3      2.0     3.6    999.0   0.00  
 352   22:20    0.0    55   88.8     3    358.6     4.2    999.0   0.00  
 352   22:30    0.0    55   88.4     3      0.6     3.6    999.0   0.00  
 352   22:40    0.0    55   87.8     3    343.1     3.6    999.0   0.00  
 352   22:50    0.0    55   87.5     4    347.8     4.8    999.0   0.00  
 352   23:00    0.0    55   87.6     3      4.9     4.2    999.0   0.00  
 352   23:10    0.0    55   87.5     4    355.5     4.2    999.0   0.00  
 352   23:20    0.0    55   87.3     4    352.4     4.8    999.0   0.00  
 352   23:30    0.0    55   87.3     4      4.9     4.8    999.0   0.00  
 352   23:40    0.0    55   87.5     3     16.1     4.8    999.0   0.00  
 352   23:50    0.0    55   87.2     4     63.2     4.8    999.0   0.00  
 353    0:00    0.0    55   86.7     4     80.4     4.8    999.0   0.00  
 353    0:10    0.0    55   86.5     4     66.6     5.4    999.0   0.00  
 353    0:20    0.0    56   86.6     3     52.4     4.8    999.0   0.00  
 353    0:30    0.0    55   86.9     4     31.0     4.8    999.0   0.00  
 353    0:40    0.0    55   87.3     3     26.0     4.2    999.0   0.00  
 353    0:50    0.0    55   87.7     4     31.9     4.8    999.0   0.00  
 353    1:00    0.0    55   88.0     4     40.6     6.0    999.0   0.00  
 353    1:10    0.0    55   88.4     4     38.4     5.4    999.0   0.00  
 353    1:20    0.0    55   88.7     6     38.4     7.2    999.0   0.00  
 353    1:30    0.0    55   88.9     6     39.7     7.8    999.0   0.00  
 353    1:40    0.0    55   89.0     5     45.4     6.6    999.0   0.00  
 353    1:50    0.0    55   89.0     5     53.3     6.0    999.0   0.00  
 353    2:00    0.0    55   88.7     4     61.3     6.6    999.0   0.00  
 353    2:10    0.0    55   88.6     5     54.4     6.6    999.0   0.00  
 353    2:20    0.0    55   88.3     6     44.2     7.8    999.0   0.00  
 353    2:30    0.0    54   88.0     6     35.2     8.4    999.0   0.00  
 353    2:40    0.0    55   88.3     6     37.6     9.0    999.0   0.00  
 353    2:50    0.0    55   88.6     6     29.4     8.4    999.0   0.00  
 353    3:00    0.0    55   88.7     6     27.3     8.4    999.0   0.00  
 353    3:10    0.0    55   88.8     6     28.8     7.8    999.0   0.00  
 353    3:20    0.0    55   88.8     6     30.5     7.8    999.0   0.00  
 353    3:30    0.0    55   88.8     5     20.7     7.2    999.0   0.00  
 353    3:40    0.0    55   89.1     6     20.1     7.2    999.0   0.00  
 353    3:50    0.0    55   89.2     4     18.3     7.2    999.0   0.00  
 353    4:00    0.0    55   89.2     5     34.0     6.6    999.0   0.00  
 353    4:10    0.0    55   89.2     4     50.6     6.0    999.0   0.00  
 353    4:20    0.0    55   89.3     5     42.7     7.2    999.0   0.00  
 353    4:30    0.0    55   89.4     4     43.4     5.4    999.0   0.00  
 353    4:40    0.0    55   89.4     4     46.8     6.0    999.0   0.00  
 353    4:50    0.0    55   89.3     4     45.2     6.0    999.0   0.00  
 353    5:00    0.0    55   89.3     4     44.6     5.4    999.0   0.00  
 353    5:10    0.0    55   89.4     4     32.9     5.4    999.0   0.00  
 353    5:20    0.0    55   89.3     5     47.5     7.2    999.0   0.00  
 353    5:30    0.0    55   89.5     3     27.4     4.8    999.0   0.00  
 353    5:40    0.0    55   89.4     2     33.5     3.0    999.0   0.00  
 353    5:50    0.0    55   89.1     1     22.0     2.4    999.0   0.00  
 353    6:00    0.0    56   88.6     1    301.9     2.4    999.0   0.00  
 353    6:10    0.0    56   88.3     3     21.9     6.0    999.0   0.00  
 353    6:20    0.0    55   88.4     4     35.6     5.4    999.0   0.00  
 353    6:30    0.0    55   88.8     4     37.8     6.0    999.0   0.00  
 353    6:40    0.0    55   89.0     5     31.4     6.6    999.0   0.00  
 353    6:50    0.0    55   89.2     5     30.2     6.0    999.0   0.00  
 353    7:00    1.0    55   89.3     5     38.1     6.6    999.0   0.00  
 353    7:10    5.0    55   89.3     4     35.8     4.8    999.0   0.00  
 353    7:20   13.0    55   89.3     4     44.4     4.8    999.0   0.00  
 353    7:30   30.0    55   89.3     5     61.2     6.0    999.0   0.00  
 353    7:40  119.0    56   89.0     5     75.6     6.0    999.0   0.00  
 353    7:50  157.0    56   87.6     3     79.2     5.4    999.0   0.00  
 353    8:00  163.0    57   85.7     4     54.0     4.8    999.0   0.00  
 353    8:10  109.0    56   86.3     4     45.8     6.0    999.0   0.00  
 353    8:20  215.0    56   86.9     4     59.0     5.4    999.0   0.00  
 353    8:30  253.0    58   84.7     4     54.4     5.4    999.0   0.00  
 353    8:40  228.0    58   83.1     4     38.0     5.4    999.0   0.00  
 353    8:50  100.0    57   84.6     4     37.3     6.0    999.0   0.00  
 353    9:00   88.0    56   86.5     5     27.4     6.0    999.0   0.00  
 353    9:10  159.0    56   87.2     4     29.6     5.4    999.0   0.00  
 353    9:20  125.0    56   87.1     3     33.7     4.8    999.0   0.00  
 353    9:30  148.0    57   86.5     3     27.1     4.2    999.0   0.00  
 353    9:40  145.0    57   86.0     4     19.0     5.4    999.0   0.00  
 353    9:50  455.0    58   85.0     2     60.3     4.2    999.0   0.00  
 353   10:00  670.0    63   79.9     3    123.9     4.8    999.0   0.00  
 353   10:10  657.0    64   74.8     4    170.6     7.8    999.0   0.00  
 353   10:20  475.0    62   77.4     4    166.3     9.0    999.0   0.00  
 353   10:30  500.0    62   77.6     2    322.9     4.8    999.0   0.00  
 353   10:40  599.0    62   77.9     3    331.9     5.4    999.0   0.00  
 353   10:50  469.0    62   78.3     3    295.1     4.8    999.0   0.00  
 353   11:00  252.0    60   80.2     3    294.3     4.8    999.0   0.00  
 353   11:10  182.0    60   81.6     2    280.7     4.8    999.0   0.00  
 353   11:20  145.0    60   81.2     2    136.8     6.6    999.0   0.00  
 353   11:30  117.0    60   79.9     3    218.3     5.4    999.0   0.00  
 353   11:40  104.0    60   80.4     2    269.4     4.2    999.0   0.00  
 353   11:50  120.0    60   81.5     2      8.4     3.6    999.0   0.00  
 353   12:00   94.0    59   82.1     3    346.6     5.4    999.0   0.00  
 353   12:10   60.0    59   83.8     5    302.6     9.0    999.0   0.00  
 353   12:20   73.0    58   84.8     6    312.1     9.0    999.0   0.00  
 353   12:30   73.0    58   84.9     7    312.1    11.9    999.0   0.00  
 353   12:40  203.0    58   84.8     7    312.8    12.5    999.0   0.00  

Return to Cactus Peak graphs page.


Western Regional Climate Center,wrcc@dri.edu